Time;durP1;ratioP1;P1;durP2;ratioP2;P2;SDS_P1;SDS_P2;PMS_P1;PMS_P2;Temp;Humidity;BMP_temperature;BMP_pressure;BME280_temperature;BME280_humidity;BME280_pressure;Samples;Min_cycle;Max_cycle;Signal;HPM_P1;HPM_P2
2022/03/29 00:01:36;;;;;;;;;;;;;;;0.32;78.23;96521.88;5071835;28;20305;-65
2022/03/29 00:04:01;;;;;;;;;;;;;;;0.26;77.80;96515.81;5071460;28;19924;-64
2022/03/29 00:06:27;;;;;;;;;;;;;;;0.21;78.12;96516.53;5071757;28;20015;-63
2022/03/29 00:08:52;;;;;;;;;;;;;;;0.17;77.92;96519.88;5071354;28;19935;-64
2022/03/29 00:11:18;;;;;;;;;;;;;;;0.10;78.12;96519.25;5071759;28;19928;-66
2022/03/29 00:13:44;;;;;;;;;;;;;;;0.10;78.12;96525.25;5087760;28;19924;-59
2022/03/29 00:16:09;;;;;;;;;;;;;;;0.08;78.33;96521.31;5091198;28;19946;-58
2022/03/29 00:18:35;;;;;;;;;;;;;;;0.07;78.50;96525.72;5085252;28;19924;-58
2022/03/29 00:21:01;;;;;;;;;;;;;;;0.09;78.44;96521.09;5071547;28;20025;-59
2022/03/29 00:23:26;;;;;;;;;;;;;;;0.09;78.20;96531.50;5071910;28;19931;-60
2022/03/29 00:25:51;;;;;;;;;;;;;;;0.10;77.92;96522.66;5072618;28;19928;-59
2022/03/29 00:28:17;;;;;;;;;;;;;;;0.08;78.56;96519.47;5070384;28;20332;-59
2022/03/29 00:30:42;;;;;;;;;;;;;;;0.05;78.57;96516.56;5070592;28;19955;-58
2022/03/29 00:33:08;;;;;;;;;;;;;;;0.05;78.42;96514.75;5070746;28;20317;-58
2022/03/29 00:35:33;;;;;;;;;;;;;;;0.01;78.20;96518.09;5091975;28;19928;-60
2022/03/29 00:37:59;;;;;;;;;;;;;;;-0.01;78.27;96523.53;5091880;28;20399;-59
2022/03/29 00:40:24;;;;;;;;;;;;;;;-0.03;78.58;96517.75;5090514;28;19927;-58
2022/03/29 00:42:50;;;;;;;;;;;;;;;0.01;77.99;96507.69;5081740;28;19970;-59
2022/03/29 00:45:16;;;;;;;;;;;;;;;-0.03;78.48;96517.75;5070192;28;19935;-59
2022/03/29 00:47:41;;;;;;;;;;;;;;;-0.08;78.45;96522.94;5071328;28;20368;-59
2022/03/29 00:50:07;;;;;;;;;;;;;;;-0.07;78.91;96530.47;5088109;28;19928;-60
2022/03/29 00:52:33;;;;;;;;;;;;;;;-0.07;78.78;96519.28;5090425;28;19976;-62
2022/03/29 00:55:00;;;;;;;;;;;;;;;-0.02;78.48;96519.38;5090246;28;20027;-59
2022/03/29 00:57:27;;;;;;;;;;;;;;;-0.01;78.35;96526.91;5084826;28;19924;-63
2022/03/29 00:59:52;;;;;;;;;;;;;;;0.02;78.17;96528.25;5069995;28;20015;-63
2022/03/29 01:02:18;;;;;;;;;;;;;;;0.07;78.23;96533.53;5071231;28;20031;-62
2022/03/29 01:04:43;;;;;;;;;;;;;;;0.20;77.94;96527.97;5084784;28;20384;-65
2022/03/29 01:07:09;;;;;;;;;;;;;;;0.33;77.51;96523.47;5091639;28;19924;-62
2022/03/29 01:09:34;;;;;;;;;;;;;;;0.35;77.53;96524.78;5091930;28;19931;-63
2022/03/29 01:12:00;;;;;;;;;;;;;;;0.35;77.28;96529.97;5089887;28;19928;-63
2022/03/29 01:14:26;;;;;;;;;;;;;;;0.28;77.28;96523.41;5091800;28;20054;-62
2022/03/29 01:19:36;;;;;;;;;;;;;;;0.49;76.64;96530.44;5079131;28;19925;-61
2022/03/29 01:22:02;;;;;;;;;;;;;;;0.58;76.24;96534.19;5074720;28;19943;-63
2022/03/29 01:24:28;;;;;;;;;;;;;;;0.66;75.88;96536.38;5074838;28;19931;-62
2022/03/29 01:26:56;;;;;;;;;;;;;;;0.71;75.33;96548.69;5074595;28;20038;-63
2022/03/29 01:29:22;;;;;;;;;;;;;;;0.72;75.76;96547.63;5075089;28;20385;-62
2022/03/29 01:31:50;;;;;;;;;;;;;;;0.79;75.65;96547.44;5074503;28;19980;-63
2022/03/29 01:34:16;;;;;;;;;;;;;;;0.90;75.04;96547.31;5082197;28;19924;-61
2022/03/29 01:36:41;;;;;;;;;;;;;;;0.99;74.44;96550.28;5093330;28;20313;-62
2022/03/29 01:39:07;;;;;;;;;;;;;;;1.08;74.69;96553.22;5095133;28;19931;-63
2022/03/29 01:41:32;;;;;;;;;;;;;;;1.12;74.76;96557.72;5094792;28;19985;-63
2022/03/29 01:43:59;;;;;;;;;;;;;;;1.13;73.91;96554.06;5077061;28;19958;-63
2022/03/29 01:46:25;;;;;;;;;;;;;;;1.17;74.67;96566.63;5072927;28;19963;-64
2022/03/29 01:48:50;;;;;;;;;;;;;;;1.16;73.89;96563.22;5079261;28;19963;-66
2022/03/29 01:51:16;;;;;;;;;;;;;;;1.26;74.04;96565.94;5093087;28;19928;-64
2022/03/29 01:53:42;;;;;;;;;;;;;;;1.28;74.11;96555.25;5059800;28;20381;-62
2022/03/29 01:56:08;;;;;;;;;;;;;;;1.29;73.91;96568.03;5059577;28;19928;-65
2022/03/29 01:58:33;;;;;;;;;;;;;;;1.32;73.45;96564.16;5078498;28;19924;-63
2022/03/29 02:00:59;;;;;;;;;;;;;;;1.33;73.40;96566.53;5073062;28;20348;-61
2022/03/29 02:03:25;;;;;;;;;;;;;;;1.43;72.97;96562.44;5085348;28;20343;-60
2022/03/29 02:05:50;;;;;;;;;;;;;;;1.47;73.26;96571.34;5073931;28;19983;-61
2022/03/29 02:08:16;;;;;;;;;;;;;;;1.50;73.45;96569.03;5056034;28;19951;-63
2022/03/29 02:10:42;;;;;;;;;;;;;;;1.52;72.86;96558.34;5076213;28;19939;-62
2022/03/29 02:13:11;;;;;;;;;;;;;;;1.50;72.12;96574.25;5094400;28;19924;-60
2022/03/29 02:15:39;;;;;;;;;;;;;;;1.57;72.74;96569.63;5093977;28;19987;-60
2022/03/29 02:18:05;;;;;;;;;;;;;;;1.60;72.37;96570.94;5093995;28;19931;-61
2022/03/29 02:20:31;;;;;;;;;;;;;;;1.60;71.81;96565.72;5094148;28;19928;-63
2022/03/29 02:23:08;;;;;;;;;;;;;;;1.61;72.59;96569.13;5091917;28;19927;-61
2022/03/29 02:25:35;;;;;;;;;;;;;;;1.66;71.78;96569.94;5092367;28;19960;-61
2022/03/29 02:28:00;;;;;;;;;;;;;;;1.70;71.58;96565.00;5093695;28;20446;-62
2022/03/29 02:30:26;;;;;;;;;;;;;;;1.68;72.04;96567.88;5090129;28;20042;-63
2022/03/29 02:32:52;;;;;;;;;;;;;;;1.67;72.07;96570.72;5073417;28;20361;-60
2022/03/29 02:35:17;;;;;;;;;;;;;;;1.65;71.81;96563.16;5072134;28;19929;-62
2022/03/29 02:37:43;;;;;;;;;;;;;;;1.64;72.48;96572.00;5073180;28;19978;-62
2022/03/29 02:40:09;;;;;;;;;;;;;;;1.63;71.85;96564.44;5073125;28;19929;-62
2022/03/29 02:42:43;;;;;;;;;;;;;;;1.65;71.75;96562.34;5090202;28;19924;-61
2022/03/29 02:45:11;;;;;;;;;;;;;;;1.67;71.47;96571.50;5093262;28;20397;-62
2022/03/29 02:47:37;;;;;;;;;;;;;;;1.69;72.19;96582.50;5086791;28;20011;-62
2022/03/29 02:50:03;;;;;;;;;;;;;;;1.70;71.96;96580.69;5091927;28;20033;-63
2022/03/29 02:52:29;;;;;;;;;;;;;;;1.70;71.83;96581.47;5075012;28;20439;-63
2022/03/29 02:54:54;;;;;;;;;;;;;;;1.66;71.86;96583.00;5090996;28;19932;-61
2022/03/29 02:57:20;;;;;;;;;;;;;;;1.71;71.96;96587.50;5072703;28;19924;-63
2022/03/29 02:59:46;;;;;;;;;;;;;;;1.70;72.06;96591.13;5071340;28;19971;-62
2022/03/29 03:02:11;;;;;;;;;;;;;;;1.72;71.78;96589.06;5072917;28;19920;-66
2022/03/29 03:04:37;;;;;;;;;;;;;;;1.73;71.45;96601.06;5073197;28;20430;-64
2022/03/29 03:07:02;;;;;;;;;;;;;;;1.74;71.53;96592.22;5072634;28;19940;-63
2022/03/29 03:09:28;;;;;;;;;;;;;;;1.81;71.03;96598.00;5072595;28;19924;-62
2022/03/29 03:11:53;;;;;;;;;;;;;;;1.82;71.15;96594.34;5089806;28;20317;-63
2022/03/29 03:14:19;;;;;;;;;;;;;;;1.76;70.72;96598.75;5091542;28;20424;-63
2022/03/29 03:16:44;;;;;;;;;;;;;;;1.76;70.67;96605.78;5092923;28;20316;-62
2022/03/29 03:19:10;;;;;;;;;;;;;;;1.79;71.08;96607.91;5087329;28;20026;-60
2022/03/29 03:21:35;;;;;;;;;;;;;;;1.73;70.85;96608.91;5072452;28;19934;-62
2022/03/29 03:24:01;;;;;;;;;;;;;;;1.67;70.99;96599.44;5071177;28;19989;-62
2022/03/29 03:26:26;;;;;;;;;;;;;;;1.53;71.15;96604.28;5073414;28;20344;-61
2022/03/29 03:28:52;;;;;;;;;;;;;;;1.41;71.75;96603.66;5072638;28;20031;-61
2022/03/29 03:31:17;;;;;;;;;;;;;;;1.40;71.25;96604.69;5072314;28;19929;-62
2022/03/29 03:33:43;;;;;;;;;;;;;;;1.32;71.94;96609.34;5072490;28;19932;-61
2022/03/29 03:36:08;;;;;;;;;;;;;;;1.31;71.92;96622.63;5088722;28;19928;-63
2022/03/29 03:38:33;;;;;;;;;;;;;;;1.29;71.91;96612.41;5092593;28;19931;-64
2022/03/29 03:40:59;;;;;;;;;;;;;;;1.26;71.69;96619.94;5087290;28;19982;-61
2022/03/29 03:43:24;;;;;;;;;;;;;;;1.31;71.62;96627.84;5071984;28;19968;-60
2022/03/29 03:45:50;;;;;;;;;;;;;;;1.39;72.10;96629.22;5071125;28;20321;-62
2022/03/29 03:48:16;;;;;;;;;;;;;;;1.49;71.48;96624.88;5072237;28;19966;-61
2022/03/29 03:50:41;;;;;;;;;;;;;;;1.59;70.97;96632.81;5084340;28;20281;-59
2022/03/29 03:53:07;;;;;;;;;;;;;;;1.68;70.75;96635.00;5092234;28;19989;-60
2022/03/29 03:55:32;;;;;;;;;;;;;;;1.76;70.52;96634.53;5092257;28;19939;-61
2022/03/29 03:57:58;;;;;;;;;;;;;;;1.77;70.55;96647.34;5089904;28;20015;-61
2022/03/29 04:00:24;;;;;;;;;;;;;;;1.81;70.40;96640.56;5092014;28;20301;-60
2022/03/29 04:02:50;;;;;;;;;;;;;;;1.91;70.29;96652.97;5092537;28;19923;-62
2022/03/29 04:05:16;;;;;;;;;;;;;;;1.86;70.02;96646.91;5090958;28;19935;-65
2022/03/29 04:07:42;;;;;;;;;;;;;;;1.92;70.23;96658.97;5055021;28;20484;-65
2022/03/29 04:10:08;;;;;;;;;;;;;;;1.96;69.90;96655.59;5050353;28;19928;-60
2022/03/29 04:12:33;;;;;;;;;;;;;;;1.99;69.89;96659.53;5037997;28;19932;-65
2022/03/29 04:14:59;;;;;;;;;;;;;;;2.01;70.10;96662.69;5061980;28;19971;-64
2022/03/29 04:17:24;;;;;;;;;;;;;;;2.03;69.88;96665.84;5070405;28;20465;-66
2022/03/29 04:19:50;;;;;;;;;;;;;;;1.98;69.51;96663.97;5070588;28;19934;-64
2022/03/29 04:22:18;;;;;;;;;;;;;;;2.03;70.04;96660.63;5083893;28;20343;-67
2022/03/29 04:24:44;;;;;;;;;;;;;;;2.16;70.00;96669.88;5090245;28;20434;-66
2022/03/29 04:27:10;;;;;;;;;;;;;;;2.28;69.51;96667.88;5090645;28;19989;-65
2022/03/29 04:29:35;;;;;;;;;;;;;;;2.26;69.71;96669.94;5091454;28;20393;-66
2022/03/29 04:32:01;;;;;;;;;;;;;;;2.42;68.91;96674.25;5087404;28;19954;-67
2022/03/29 04:34:26;;;;;;;;;;;;;;;2.37;68.17;96671.59;5073876;28;19931;-64
2022/03/29 04:36:52;;;;;;;;;;;;;;;2.33;68.67;96675.75;5091279;28;20099;-67
2022/03/29 04:39:17;;;;;;;;;;;;;;;2.45;68.90;96665.91;5091716;28;20018;-66
2022/03/29 04:41:43;;;;;;;;;;;;;;;2.55;67.80;96673.00;5073270;28;19932;-68
2022/03/29 04:44:08;;;;;;;;;;;;;;;2.73;67.71;96667.34;5071318;28;19967;-66
2022/03/29 04:46:34;;;;;;;;;;;;;;;2.71;67.72;96663.44;5071230;28;19982;-65
2022/03/29 04:48:59;;;;;;;;;;;;;;;2.79;67.62;96680.47;5070268;28;19947;-64
2022/03/29 04:51:25;;;;;;;;;;;;;;;2.83;67.13;96681.56;5089314;28;19935;-65
2022/03/29 04:53:50;;;;;;;;;;;;;;;2.79;67.43;96704.03;5087804;28;19931;-59
2022/03/29 04:56:16;;;;;;;;;;;;;;;2.62;68.36;96728.53;5085739;28;20396;-61
2022/03/29 04:58:41;;;;;;;;;;;;;;;2.25;69.90;96744.94;5075076;28;20293;-60
2022/03/29 05:01:07;;;;;;;;;;;;;;;1.93;71.96;96742.31;5075324;28;19935;-61
2022/03/29 05:03:32;;;;;;;;;;;;;;;1.54;70.89;96760.69;5073948;28;19925;-62
2022/03/29 05:05:58;;;;;;;;;;;;;;;1.21;72.90;96745.94;5093797;28;19928;-63
2022/03/29 05:08:23;;;;;;;;;;;;;;;1.10;72.73;96750.22;5093807;28;19924;-60
2022/03/29 05:10:49;;;;;;;;;;;;;;;1.18;72.66;96762.09;5092920;28;20056;-62
2022/03/29 05:13:15;;;;;;;;;;;;;;;1.17;72.34;96759.72;5079337;28;19931;-61
2022/03/29 05:15:41;;;;;;;;;;;;;;;1.18;72.41;96767.31;5073753;28;19952;-61
2022/03/29 05:18:06;;;;;;;;;;;;;;;1.27;72.40;96762.47;5074560;28;19924;-62
2022/03/29 05:20:31;;;;;;;;;;;;;;;1.35;71.27;96762.84;5084764;28;19943;-61
2022/03/29 05:22:57;;;;;;;;;;;;;;;1.45;69.76;96764.00;5093541;28;19924;-61
2022/03/29 05:25:24;;;;;;;;;;;;;;;1.51;69.63;96765.63;5094793;28;20015;-62
2022/03/29 05:27:50;;;;;;;;;;;;;;;1.70;68.15;96768.69;5093573;28;19924;-62
2022/03/29 05:30:16;;;;;;;;;;;;;;;1.74;67.95;96772.41;5093604;28;19958;-63
2022/03/29 05:32:41;;;;;;;;;;;;;;;1.72;66.56;96784.94;5091776;28;19931;-63
2022/03/29 05:35:08;;;;;;;;;;;;;;;1.95;66.47;96776.03;5094681;28;19936;-62
2022/03/29 05:37:34;;;;;;;;;;;;;;;1.88;63.88;96783.25;5094492;28;19989;-62
2022/03/29 05:40:00;;;;;;;;;;;;;;;1.87;63.02;96779.84;5094444;28;19936;-63
2022/03/29 05:42:25;;;;;;;;;;;;;;;1.92;61.76;96786.97;5075027;28;19951;-63
2022/03/29 05:44:51;;;;;;;;;;;;;;;1.72;61.91;96796.16;5056305;28;20409;-61
2022/03/29 05:50:01;;;;;;;;;;;;;;;1.94;61.61;96796.16;5072554;28;19936;-60
2022/03/29 05:52:26;;;;;;;;;;;;;;;2.10;60.64;96796.31;5075396;28;19925;-62
2022/03/29 05:54:52;;;;;;;;;;;;;;;2.39;60.39;96808.09;5069953;28;20428;-61
2022/03/29 05:57:19;;;;;;;;;;;;;;;2.42;60.15;96812.81;5069306;28;19947;-63
2022/03/29 05:59:45;;;;;;;;;;;;;;;2.37;59.47;96810.16;5077698;28;19928;-63
2022/03/29 06:02:10;;;;;;;;;;;;;;;2.30;60.22;96801.72;5088942;28;19998;-62
2022/03/29 06:04:36;;;;;;;;;;;;;;;2.38;59.91;96809.13;5091624;28;19920;-61
2022/03/29 06:07:04;;;;;;;;;;;;;;;2.48;59.85;96817.06;5091348;28;20397;-61
2022/03/29 06:09:30;;;;;;;;;;;;;;;2.35;60.19;96830.50;5090750;28;19923;-61
2022/03/29 06:11:55;;;;;;;;;;;;;;;2.21;60.90;96824.91;5090419;28;19936;-61
2022/03/29 06:14:21;;;;;;;;;;;;;;;2.35;61.09;96833.13;5088143;28;19966;-61
2022/03/29 06:16:46;;;;;;;;;;;;;;;2.10;60.84;96844.13;5088577;28;20373;-62
2022/03/29 06:19:12;;;;;;;;;;;;;;;2.24;61.21;96840.09;5089599;28;20373;-61
2022/03/29 06:21:38;;;;;;;;;;;;;;;2.22;61.70;96841.38;5086009;28;19978;-61
2022/03/29 06:24:04;;;;;;;;;;;;;;;2.08;61.12;96859.25;5084223;28;19929;-62
2022/03/29 06:26:30;;;;;;;;;;;;;;;2.05;62.24;96864.97;5066502;28;20301;-61
2022/03/29 06:28:56;;;;;;;;;;;;;;;1.86;59.87;96876.78;5054292;28;19932;-61
2022/03/29 06:31:21;;;;;;;;;;;;;;;1.53;60.05;96886.25;5083270;28;19928;-60
2022/03/29 06:33:47;;;;;;;;;;;;;;;1.54;59.94;96906.13;5090493;28;19924;-60
2022/03/29 06:36:13;;;;;;;;;;;;;;;1.32;58.99;96891.22;5089246;28;20447;-62
2022/03/29 06:38:38;;;;;;;;;;;;;;;1.58;58.45;96896.75;5091506;28;19924;-61
2022/03/29 06:41:05;;;;;;;;;;;;;;;1.83;57.68;96903.38;5088151;28;19928;-61
2022/03/29 06:43:30;;;;;;;;;;;;;;;1.75;58.09;96899.34;5089030;28;20012;-62
2022/03/29 06:45:56;;;;;;;;;;;;;;;1.86;56.91;96897.66;5088862;28;19989;-61
2022/03/29 06:48:23;;;;;;;;;;;;;;;2.05;54.58;96909.38;5088873;28;20547;-62
2022/03/29 06:50:48;;;;;;;;;;;;;;;2.02;52.68;96896.81;5078895;28;19929;-61
2022/03/29 06:53:14;;;;;;;;;;;;;;;2.07;52.87;96899.50;5083846;28;20077;-59
2022/03/29 06:55:39;;;;;;;;;;;;;;;1.82;52.92;96913.00;5089182;28;20408;-61
2022/03/29 06:58:05;;;;;;;;;;;;;;;1.89;52.89;96905.81;5088395;28;20013;-61
2022/03/29 07:00:30;;;;;;;;;;;;;;;1.95;53.62;96917.13;5080629;28;19942;-62
2022/03/29 07:02:56;;;;;;;;;;;;;;;1.72;53.13;96913.69;5073290;28;19932;-61
2022/03/29 07:05:21;;;;;;;;;;;;;;;1.63;53.47;96914.34;5075726;28;19951;-61
2022/03/29 07:07:47;;;;;;;;;;;;;;;1.63;52.90;96914.34;5091501;28;19924;-61
2022/03/29 07:12:59;;;;;;;;;;;;;;;1.68;52.57;96923.03;5090586;28;19924;-62
2022/03/29 07:15:25;;;;;;;;;;;;;;;1.58;52.16;96923.66;5069758;28;20145;-61
2022/03/29 07:17:51;;;;;;;;;;;;;;;1.53;52.64;96923.63;5070013;28;19924;-62
2022/03/29 07:20:19;;;;;;;;;;;;;;;1.41;52.94;96935.94;5066727;28;19982;-62
2022/03/29 07:22:45;;;;;;;;;;;;;;;1.58;52.49;96928.09;5064885;28;19924;-61
2022/03/29 07:25:11;;;;;;;;;;;;;;;1.78;52.53;96940.66;5069099;28;20455;-63
2022/03/29 07:27:37;;;;;;;;;;;;;;;2.04;51.88;96939.97;5069881;28;19924;-63
2022/03/29 07:30:04;;;;;;;;;;;;;;;2.03;52.29;96943.63;5066685;28;19971;-61
2022/03/29 07:32:29;;;;;;;;;;;;;;;2.02;51.73;96949.84;5089558;28;20007;-59
2022/03/29 07:34:55;;;;;;;;;;;;;;;2.30;52.00;96947.34;5074878;28;20030;-61
2022/03/29 07:37:21;;;;;;;;;;;;;;;2.31;50.18;96954.13;5068823;28;19924;-62
2022/03/29 07:39:48;;;;;;;;;;;;;;;2.51;50.17;96938.69;5082847;28;19928;-62
2022/03/29 07:42:14;;;;;;;;;;;;;;;2.60;49.46;96952.88;5070873;28;20023;-60
2022/03/29 07:44:39;;;;;;;;;;;;;;;2.68;48.18;96967.38;5055381;28;20014;-62
2022/03/29 07:47:05;;;;;;;;;;;;;;;2.44;49.66;96966.81;5084637;28;19928;-60
2022/03/29 07:49:30;;;;;;;;;;;;;;;2.52;50.84;96970.84;5081950;28;19924;-63
2022/03/29 07:51:56;;;;;;;;;;;;;;;2.55;51.27;96963.28;5068890;28;20485;-63
2022/03/29 07:54:21;;;;;;;;;;;;;;;2.68;51.89;96970.78;5069541;28;20014;-61
2022/03/29 07:56:47;;;;;;;;;;;;;;;2.76;51.81;96971.34;5074072;28;19929;-60
2022/03/29 07:59:13;;;;;;;;;;;;;;;2.72;53.06;96978.91;5068659;28;19928;-61
2022/03/29 08:01:38;;;;;;;;;;;;;;;2.91;55.33;96990.63;5089850;28;20420;-62
2022/03/29 08:04:04;;;;;;;;;;;;;;;3.11;54.11;96981.38;5080046;28;19929;-64
2022/03/29 08:06:30;;;;;;;;;;;;;;;3.37;51.08;96980.56;5086721;28;19933;-61
2022/03/29 08:08:56;;;;;;;;;;;;;;;3.69;50.99;96990.22;5052769;28;19954;-61
2022/03/29 08:11:22;;;;;;;;;;;;;;;3.89;59.53;97002.69;5087210;28;20405;-63
2022/03/29 08:13:48;;;;;;;;;;;;;;;3.80;58.39;97009.44;5086238;28;19924;-62
2022/03/29 08:16:14;;;;;;;;;;;;;;;3.55;54.90;97017.91;5071028;28;20317;-62
2022/03/29 08:18:40;;;;;;;;;;;;;;;3.59;57.24;97013.75;5088558;28;20277;-65
2022/03/29 08:21:47;;;;;;;;;;;;;;;3.47;59.27;97016.53;5087728;28;19928;-62
2022/03/29 08:23:51;;;;;;;;;;;;;;;3.68;60.79;97025.34;5080109;28;19948;-60
2022/03/29 08:26:17;;;;;;;;;;;;;;;3.64;63.61;97022.41;5069584;28;20017;-63
2022/03/29 08:28:43;;;;;;;;;;;;;;;3.22;61.94;97040.66;5069254;28;20429;-60
2022/03/29 08:31:08;;;;;;;;;;;;;;;3.32;71.56;97038.13;5071712;28;19975;-61
2022/03/29 08:33:34;;;;;;;;;;;;;;;3.59;67.78;97034.72;5074564;28;19953;-60
2022/03/29 08:35:59;;;;;;;;;;;;;;;3.58;64.64;97026.03;5072176;28;19933;-60
2022/03/29 08:38:26;;;;;;;;;;;;;;;3.71;59.22;97039.78;5074564;28;19931;-59
2022/03/29 08:40:54;;;;;;;;;;;;;;;3.94;59.27;97038.63;5072939;28;19974;-61
2022/03/29 08:43:20;;;;;;;;;;;;;;;3.74;55.95;97037.44;5072298;28;20026;-62
2022/03/29 08:45:48;;;;;;;;;;;;;;;3.54;62.69;97034.66;5071126;28;20412;-61
2022/03/29 08:48:14;;;;;;;;;;;;;;;3.56;67.00;97041.22;5074642;28;20381;-61
2022/03/29 08:50:40;;;;;;;;;;;;;;;3.48;71.97;97039.06;5072423;28;19929;-63
2022/03/29 08:53:07;;;;;;;;;;;;;;;3.65;67.16;97044.19;5069889;28;19924;-61
2022/03/29 08:55:33;;;;;;;;;;;;;;;3.88;69.70;97048.28;5072193;28;19928;-63
2022/03/29 08:57:58;;;;;;;;;;;;;;;3.92;68.29;97049.38;5071829;28;19969;-61
2022/03/29 09:00:24;;;;;;;;;;;;;;;4.27;69.29;97048.81;5072338;28;20283;-60
2022/03/29 09:02:50;;;;;;;;;;;;;;;4.26;63.50;97052.44;5071267;28;20396;-61
2022/03/29 09:05:16;;;;;;;;;;;;;;;4.00;54.99;97051.53;5070815;28;19954;-60
2022/03/29 09:07:48;;;;;;;;;;;;;;;4.21;56.65;97052.44;5070576;28;19924;-60
2022/03/29 09:10:14;;;;;;;;;;;;;;;4.17;55.78;97047.94;5071220;28;19928;-60
2022/03/29 09:12:40;;;;;;;;;;;;;;;4.65;60.60;97064.47;5055003;28;19924;-61
2022/03/29 09:15:06;;;;;;;;;;;;;;;4.53;51.94;97059.44;5071549;28;19928;-61
2022/03/29 09:17:32;;;;;;;;;;;;;;;4.77;53.98;97076.34;5069896;28;20351;-60
2022/03/29 09:19:59;;;;;;;;;;;;;;;4.93;55.33;97079.00;5072215;28;19935;-59
2022/03/29 09:22:37;;;;;;;;;;;;;;;4.64;47.66;97076.00;5072508;28;19927;-61
2022/03/29 09:25:04;;;;;;;;;;;;;;;4.50;48.18;97071.22;5073620;28;20056;-61
2022/03/29 09:27:29;;;;;;;;;;;;;;;4.70;47.33;97081.00;5074135;28;19920;-61
2022/03/29 09:30:08;;;;;;;;;;;;;;;4.78;45.75;97077.13;5069947;28;20059;-62
2022/03/29 09:32:34;;;;;;;;;;;;;;;4.94;47.20;97091.09;5071791;28;19931;-60
2022/03/29 09:35:04;;;;;;;;;;;;;;;5.08;49.04;97092.19;5073436;28;19928;-61
2022/03/29 09:37:34;;;;;;;;;;;;;;;5.40;48.12;97094.66;5034846;28;19924;-63
2022/03/29 09:40:00;;;;;;;;;;;;;;;5.70;45.16;97093.88;5083224;28;19928;-61
2022/03/29 09:43:01;;;;;;;;;;;;;;;5.96;44.76;97107.09;5109592;28;19982;-62
2022/03/29 09:45:40;;;;;;;;;;;;;;;5.86;42.07;97107.84;5095645;28;19935;-64
2022/03/29 09:48:24;;;;;;;;;;;;;;;5.96;43.52;97114.19;5091937;28;19924;-62
2022/03/29 09:50:52;;;;;;;;;;;;;;;6.22;44.36;97118.41;5090335;28;19977;-63
2022/03/29 09:53:34;;;;;;;;;;;;;;;6.10;41.28;97108.13;5100181;28;19924;-62
2022/03/29 09:56:00;;;;;;;;;;;;;;;5.92;41.98;97108.66;5106771;28;19928;-61
2022/03/29 09:58:25;;;;;;;;;;;;;;;5.53;43.16;97109.13;5077271;28;20498;-61
2022/03/29 10:00:51;;;;;;;;;;;;;;;5.14;43.22;97111.38;5105820;28;19973;-61
2022/03/29 10:03:17;;;;;;;;;;;;;;;5.25;42.79;97110.38;5091608;28;19924;-63
2022/03/29 10:05:42;;;;;;;;;;;;;;;5.31;43.38;97109.34;5064650;28;19928;-64
2022/03/29 10:10:53;;;;;;;;;;;;;;;5.87;44.40;97098.91;5087824;28;20455;-62
2022/03/29 10:13:23;;;;;;;;;;;;;;;6.31;42.42;97101.00;5107801;28;19923;-63
2022/03/29 10:15:49;;;;;;;;;;;;;;;6.09;43.06;97092.63;5053608;28;19933;-61
2022/03/29 10:18:15;;;;;;;;;;;;;;;5.83;42.33;97105.75;5078615;28;19930;-61
2022/03/29 10:20:41;;;;;;;;;;;;;;;5.63;43.03;97114.41;5071509;28;19928;-61
2022/03/29 10:23:06;;;;;;;;;;;;;;;5.36;43.31;97121.72;5075862;28;20434;-60
2022/03/29 10:25:32;;;;;;;;;;;;;;;5.19;43.59;97127.94;5088623;28;19927;-60
2022/03/29 10:28:01;;;;;;;;;;;;;;;5.48;42.59;97130.13;5069981;28;19930;-58
2022/03/29 10:30:32;;;;;;;;;;;;;;;5.62;42.86;97120.72;5047875;28;20046;-58
2022/03/29 10:33:19;;;;;;;;;;;;;;;5.81;42.27;97120.19;5066557;28;19967;-63
2022/03/29 10:36:14;;;;;;;;;;;;;;;5.32;42.49;97125.88;5059565;28;19928;-59
2022/03/29 10:39:43;;;;;;;;;;;;;;;5.27;43.95;97120.63;5046358;28;19925;-61
2022/03/29 10:42:27;;;;;;;;;;;;;;;5.42;44.14;97116.19;5049088;28;19974;-60
2022/03/29 10:45:12;;;;;;;;;;;;;;;5.06;46.88;97117.13;5076940;28;20418;-60
2022/03/29 10:47:38;;;;;;;;;;;;;;;5.62;43.85;97114.66;5083277;28;20289;-60
2022/03/29 10:50:04;;;;;;;;;;;;;;;5.63;44.25;97114.41;5086105;28;20400;-61
2022/03/29 10:52:31;;;;;;;;;;;;;;;5.90;43.13;97123.88;5088294;28;19950;-58
2022/03/29 10:55:32;;;;;;;;;;;;;;;5.91;42.23;97120.19;5033631;28;19928;-59
2022/03/29 10:58:05;;;;;;;;;;;;;;;6.23;44.18;97113.91;5085118;28;19924;-62
2022/03/29 11:00:31;;;;;;;;;;;;;;;6.00;42.48;97131.81;5070251;28;20628;-61
2022/03/29 11:03:15;;;;;;;;;;;;;;;6.13;47.13;97135.75;5084191;28;19924;-60
2022/03/29 11:06:00;;;;;;;;;;;;;;;5.75;47.48;97135.19;5070068;28;19928;-60
2022/03/29 11:08:28;;;;;;;;;;;;;;;5.59;50.28;97144.88;5086370;28;19924;-60
2022/03/29 11:10:54;;;;;;;;;;;;;;;5.42;46.84;97147.72;5087146;28;19979;-59
2022/03/29 11:13:26;;;;;;;;;;;;;;;5.29;47.55;97158.72;5070351;28;19964;-60
2022/03/29 11:15:52;;;;;;;;;;;;;;;5.39;48.91;97160.59;5075052;28;19928;-58
2022/03/29 11:18:29;;;;;;;;;;;;;;;5.28;47.32;97166.84;5087841;28;19924;-60
2022/03/29 11:21:02;;;;;;;;;;;;;;;5.07;47.14;97171.25;5072498;28;19932;-59
2022/03/29 11:23:41;;;;;;;;;;;;;;;4.70;45.57;97174.69;5084193;28;19955;-59
2022/03/29 11:26:12;;;;;;;;;;;;;;;4.63;49.73;97166.28;5083591;28;19928;-62
2022/03/29 11:28:47;;;;;;;;;;;;;;;4.81;49.90;97168.47;5068992;28;20441;-62
2022/03/29 11:31:13;;;;;;;;;;;;;;;4.72;50.29;97170.00;5066891;28;20649;-65
2022/03/29 11:33:39;;;;;;;;;;;;;;;4.86;50.71;97179.00;5067957;28;19935;-64
2022/03/29 11:36:05;;;;;;;;;;;;;;;4.57;49.63;97188.28;5078593;28;19950;-63
2022/03/29 11:38:32;;;;;;;;;;;;;;;4.18;48.77;97199.00;5078311;28;20032;-62
2022/03/29 11:40:58;;;;;;;;;;;;;;;4.19;52.56;97182.22;5073037;28;20419;-63
2022/03/29 11:43:23;;;;;;;;;;;;;;;4.15;51.71;97200.28;5088628;28;19932;-64
2022/03/29 11:45:50;;;;;;;;;;;;;;;3.94;50.86;97214.22;5074291;28;19928;-60
2022/03/29 11:48:20;;;;;;;;;;;;;;;3.51;53.76;97208.81;5049290;28;19931;-61
2022/03/29 11:50:51;;;;;;;;;;;;;;;3.52;55.95;97213.00;5082112;28;20465;-62
2022/03/29 11:53:20;;;;;;;;;;;;;;;2.92;57.47;97204.16;5057529;28;19924;-61
2022/03/29 11:56:01;;;;;;;;;;;;;;;3.13;60.55;97207.06;5084740;28;19971;-61
2022/03/29 11:58:28;;;;;;;;;;;;;;;3.33;58.79;97209.13;5069676;28;20305;-60
2022/03/29 12:00:58;;;;;;;;;;;;;;;3.46;57.88;97205.34;5069387;28;20318;-61
2022/03/29 12:03:27;;;;;;;;;;;;;;;3.36;59.21;97196.34;5068872;28;19928;-61
2022/03/29 12:06:05;;;;;;;;;;;;;;;2.96;57.82;97196.63;5066982;28;20061;-63
2022/03/29 12:08:50;;;;;;;;;;;;;;;2.92;56.16;97198.94;5068490;28;19926;-62
2022/03/29 12:11:16;;;;;;;;;;;;;;;3.30;62.12;97213.03;5065922;28;19936;-61
2022/03/29 12:13:43;;;;;;;;;;;;;;;3.18;57.12;97207.91;5068377;28;19924;-61
2022/03/29 12:16:15;;;;;;;;;;;;;;;3.30;58.21;97213.03;5068829;28;20027;-62
2022/03/29 12:18:41;;;;;;;;;;;;;;;3.26;56.65;97204.06;5066927;28;19973;-59
2022/03/29 12:21:10;;;;;;;;;;;;;;;3.17;54.04;97189.81;5067760;28;19975;-61
2022/03/29 12:23:36;;;;;;;;;;;;;;;3.47;57.67;97196.44;5068694;28;19935;-61
2022/03/29 12:26:02;;;;;;;;;;;;;;;3.73;53.11;97202.75;5068002;28;20317;-62
2022/03/29 12:28:28;;;;;;;;;;;;;;;3.73;51.81;97208.78;5050193;28;20015;-60
2022/03/29 12:30:54;;;;;;;;;;;;;;;4.00;53.16;97211.44;5066553;28;19932;-62
2022/03/29 12:33:20;;;;;;;;;;;;;;;4.12;51.05;97213.91;5048797;28;19967;-59
2022/03/29 12:35:48;;;;;;;;;;;;;;;4.08;50.75;97208.34;5068137;28;19974;-62
2022/03/29 12:38:14;;;;;;;;;;;;;;;4.04;50.71;97211.72;5049791;28;20290;-62
2022/03/29 12:40:41;;;;;;;;;;;;;;;4.26;50.20;97206.41;5066808;28;19951;-61
2022/03/29 12:43:08;;;;;;;;;;;;;;;4.36;49.42;97218.81;5063380;28;19924;-62
2022/03/29 12:45:33;;;;;;;;;;;;;;;4.55;48.94;97220.00;5068866;28;20410;-60
2022/03/29 12:48:00;;;;;;;;;;;;;;;4.32;48.44;97213.25;5066522;28;20385;-63
2022/03/29 12:50:25;;;;;;;;;;;;;;;4.41;48.69;97203.91;5067245;28;19928;-60
2022/03/29 12:52:51;;;;;;;;;;;;;;;4.54;48.48;97218.44;5067730;28;19952;-64
2022/03/29 12:55:18;;;;;;;;;;;;;;;4.73;48.67;97214.34;5065105;28;19981;-62
2022/03/29 12:57:45;;;;;;;;;;;;;;;4.54;47.47;97218.44;5067750;28;19925;-62
2022/03/29 13:00:18;;;;;;;;;;;;;;;4.17;48.71;97215.75;5067666;28;19932;-64
2022/03/29 13:02:46;;;;;;;;;;;;;;;4.06;48.47;97217.53;5066950;28;19924;-58
2022/03/29 13:05:12;;;;;;;;;;;;;;;4.29;48.36;97222.44;5089886;28;19935;-62
2022/03/29 13:07:45;;;;;;;;;;;;;;;4.56;47.63;97216.34;5082591;28;19932;-61
2022/03/29 13:10:12;;;;;;;;;;;;;;;4.64;47.45;97220.31;5076145;28;19933;-63